Time;durP1;ratioP1;P1;durP2;ratioP2;P2;SDS_P1;SDS_P2;PMS_P1;PMS_P2;Temp;Humidity;BMP_temperature;BMP_pressure;BME280_temperature;BME280_humidity;BME280_pressure;Samples;Min_cycle;Max_cycle;Signal;HPM_P1;HPM_P2
2024/01/03 00:01:18;;;;;;;21.47;17.37;;;;;;;4.87;100.00;26046.72;5093541;28;20245;-58
2024/01/03 00:03:45;;;;;;;23.20;18.47;;;;;;;4.90;100.00;27047.78;5093170;28;20600;-58
2024/01/03 00:06:13;;;;;;;21.90;18.23;;;;;;;4.95;100.00;24215.75;5093153;28;20245;-58
2024/01/03 00:08:41;;;;;;;18.63;16.63;;;;;;;4.92;100.00;23257.94;5093078;28;20188;-58
2024/01/03 00:11:08;;;;;;;16.53;13.97;;;;;;;4.77;100.00;24207.91;5093033;28;20269;-60
2024/01/03 00:14:24;;;;;;;22.00;15.80;;;;;;;4.67;100.00;24203.44;5093321;28;20747;-58
2024/01/03 00:16:50;;;;;;;19.37;16.00;;;;;;;4.22;100.00;25776.78;5057062;28;20259;-59
2024/01/03 00:19:21;;;;;;;19.07;17.00;;;;;;;4.22;100.00;25457.84;5092825;28;20618;-60
2024/01/03 00:21:48;;;;;;;22.00;18.10;;;;;;;4.13;100.00;24219.50;5093099;28;20684;-58
2024/01/03 00:24:19;;;;;;;21.57;16.67;;;;;;;3.94;100.00;23987.09;5092758;28;20242;-58
2024/01/03 00:26:47;;;;;;;21.53;19.23;;;;;;;4.00;100.00;25293.44;5092691;28;20187;-58
2024/01/03 00:29:49;;;;;;;19.33;17.50;;;;;;;3.76;100.00;27567.16;5092964;28;20265;-58
2024/01/03 00:32:17;;;;;;;21.30;16.73;;;;;;;3.56;100.00;32463.88;5092401;28;20179;-58
2024/01/03 00:34:44;;;;;;;20.90;16.97;;;;;;;3.30;100.00;33669.38;5092752;28;20223;-57
2024/01/03 00:37:26;;;;;;;20.40;17.50;;;;;;;3.33;100.00;35309.41;5092622;28;20200;-58
2024/01/03 00:39:56;;;;;;;19.90;17.50;;;;;;;3.61;100.00;37345.69;5092753;28;20253;-59
2024/01/03 00:42:24;;;;;;;20.13;15.93;;;;;;;3.59;100.00;38920.16;5092374;28;20184;-58
2024/01/03 00:44:51;;;;;;;25.23;16.67;;;;;;;3.54;100.00;40614.84;5092359;28;20180;-59
2024/01/03 00:47:19;;;;;;;22.23;16.63;;;;;;;3.38;100.00;39739.22;5092679;28;20605;-59
2024/01/03 00:49:48;;;;;;;22.20;17.13;;;;;;;3.41;100.00;40948.09;5092439;28;20226;-59
2024/01/03 00:52:16;;;;;;;17.73;15.93;;;;;;;3.32;100.00;44980.00;5092194;28;20195;-58
2024/01/03 00:54:45;;;;;;;21.67;16.80;;;;;;;3.31;100.00;45974.66;5092166;28;20261;-58
2024/01/03 00:57:15;;;;;;;21.20;16.33;;;;;;;3.26;100.00;46056.06;5092183;28;20208;-59
2024/01/03 00:59:44;;;;;;;26.97;18.43;;;;;;;3.17;100.00;43606.59;5092540;28;20200;-59
2024/01/03 01:02:11;;;;;;;21.63;19.17;;;;;;;3.40;100.00;40817.09;5092054;28;20253;-59
2024/01/03 01:04:40;;;;;;;27.33;21.00;;;;;;;3.22;100.00;38236.06;5092336;28;20645;-59
2024/01/03 01:07:07;;;;;;;26.67;20.00;;;;;;;3.46;100.00;35329.78;5092429;28;20184;-60
2024/01/03 01:09:34;;;;;;;27.03;20.17;;;;;;;3.53;100.00;33967.53;5092328;28;20257;-58
2024/01/03 01:12:01;;;;;;;24.67;19.43;;;;;;;3.72;100.00;34335.81;5091974;28;20188;-59
2024/01/03 01:14:29;;;;;;;30.73;19.83;;;;;;;3.56;100.00;37217.88;5092174;28;20192;-58
2024/01/03 01:16:56;;;;;;;26.30;20.17;;;;;;;3.76;100.00;39698.22;5091860;28;20203;-59
2024/01/03 01:19:24;;;;;;;26.13;19.40;;;;;;;3.48;100.00;42642.19;5092218;28;20230;-58
2024/01/03 01:21:51;;;;;;;26.13;18.50;;;;;;;3.44;100.00;41876.88;5092149;28;20642;-59
2024/01/03 01:24:18;;;;;;;25.37;17.60;;;;;;;3.59;100.00;42230.47;5092257;28;20237;-59
2024/01/03 01:26:45;;;;;;;24.53;17.97;;;;;;;3.63;100.00;42843.50;5091955;28;20184;-58
2024/01/03 01:29:12;;;;;;;26.93;17.87;;;;;;;3.65;100.00;42735.00;5092069;28;20270;-58
2024/01/03 01:31:41;;;;;;;22.10;15.53;;;;;;;3.73;100.00;40720.66;5091737;28;20184;-58
2024/01/03 01:34:08;;;;;;;21.90;17.27;;;;;;;3.73;100.00;39931.34;5092305;28;20246;-58
2024/01/03 01:36:35;;;;;;;24.20;17.47;;;;;;;3.69;100.00;39159.06;5091636;28;20210;-59
2024/01/03 01:39:03;;;;;;;22.37;16.93;;;;;;;3.46;100.00;42300.72;5091808;28;20236;-59
2024/01/03 01:41:30;;;;;;;20.13;15.97;;;;;;;3.13;100.00;41023.03;5092236;28;20543;-60
2024/01/03 01:43:57;;;;;;;23.73;16.17;;;;;;;3.33;100.00;40147.72;5093929;28;20176;-59
2024/01/03 01:46:25;;;;;;;20.33;16.03;;;;;;;3.39;100.00;40384.25;5096217;28;20229;-57
2024/01/03 01:48:54;;;;;;;20.43;15.23;;;;;;;3.51;100.00;41142.38;5095789;28;20188;-58
2024/01/03 01:51:21;;;;;;;17.17;15.37;;;;;;;3.55;100.00;42287.84;5096184;28;20249;-58
2024/01/03 01:53:49;;;;;;;17.33;15.53;;;;;;;3.57;100.00;42508.94;5095651;28;20301;-58
2024/01/03 01:56:19;;;;;;;16.33;14.67;;;;;;;3.62;100.00;42168.09;5095870;28;20665;-58
2024/01/03 01:58:48;;;;;;;15.87;14.37;;;;;;;3.74;100.00;42266.28;5095793;28;20223;-58
2024/01/03 02:01:17;;;;;;;16.07;14.03;;;;;;;3.76;100.00;43033.06;5095896;28;20664;-59
2024/01/03 02:03:44;;;;;;;19.67;14.33;;;;;;;3.69;100.00;44696.59;5095582;28;20180;-59
2024/01/03 02:06:13;;;;;;;16.20;14.63;;;;;;;3.74;100.00;42536.72;5096002;28;20582;-59
2024/01/03 02:08:40;;;;;;;15.37;13.83;;;;;;;3.63;100.00;42600.97;5095785;28;20221;-58
2024/01/03 02:11:07;;;;;;;14.50;13.10;;;;;;;3.51;100.00;41760.00;5095331;28;20245;-60
2024/01/03 02:13:35;;;;;;;16.33;13.40;;;;;;;3.42;100.00;40891.34;5095377;28;20188;-58
2024/01/03 02:16:02;;;;;;;12.57;11.33;;;;;;;3.46;100.00;38541.66;5095749;28;20222;-58
2024/01/03 02:18:30;;;;;;;17.70;13.43;;;;;;;3.37;100.00;40874.88;5095226;28;20188;-58
2024/01/03 02:20:58;;;;;;;14.23;11.63;;;;;;;3.28;100.00;38923.31;5095559;28;20608;-59
2024/01/03 02:23:27;;;;;;;12.70;11.70;;;;;;;3.38;100.00;38111.50;5095646;28;20608;-60
2024/01/03 02:25:54;;;;;;;12.83;11.60;;;;;;;3.30;100.00;39062.00;5095443;28;20196;-61
2024/01/03 02:28:21;;;;;;;12.83;11.60;;;;;;;3.45;100.00;40089.19;5095575;28;20556;-58
2024/01/03 02:30:48;;;;;;;12.63;11.17;;;;;;;3.54;100.00;39978.19;5095065;28;20184;-59
2024/01/03 02:33:15;;;;;;;13.67;12.43;;;;;;;3.63;100.00;40838.75;5094935;28;20278;-60
2024/01/03 02:35:42;;;;;;;12.00;10.80;;;;;;;3.67;100.00;41901.44;5094850;28;20188;-57
2024/01/03 02:38:09;;;;;;;11.83;10.70;;;;;;;3.63;100.00;41910.97;5095130;28;20191;-59
2024/01/03 02:40:38;;;;;;;14.23;12.73;;;;;;;3.68;100.00;39817.88;5095148;28;20327;-58
2024/01/03 02:43:05;;;;;;;17.70;15.80;;;;;;;3.67;100.00;39182.63;5095324;28;20192;-59
2024/01/03 02:45:32;;;;;;;16.33;13.43;;;;;;;3.57;100.00;38416.50;5094956;28;20245;-59
2024/01/03 02:47:59;;;;;;;14.20;12.33;;;;;;;3.53;100.00;40816.50;5095016;28;20237;-59
2024/01/03 02:50:26;;;;;;;15.90;13.37;;;;;;;3.63;100.00;41796.34;5094881;28;20189;-59
2024/01/03 02:52:53;;;;;;;13.80;11.87;;;;;;;3.53;100.00;43336.38;5094754;28;20199;-59
2024/01/03 02:55:21;;;;;;;14.30;11.27;;;;;;;3.48;100.00;42782.16;5094609;28;20203;-59
2024/01/03 02:57:52;;;;;;;18.70;14.10;;;;;;;3.54;100.00;41077.09;5094958;28;20696;-59
2024/01/03 03:00:19;;;;;;;12.33;11.10;;;;;;;3.62;100.00;39873.56;5095089;28;20237;-60
2024/01/03 03:02:46;;;;;;;17.70;10.00;;;;;;;3.84;100.00;40933.59;5094482;28;20191;-59
2024/01/03 03:05:14;;;;;;;9.70;8.90;;;;;;;3.74;100.00;42293.81;5094821;28;20630;-58
2024/01/03 03:07:41;;;;;;;10.50;9.70;;;;;;;3.94;100.00;39706.28;5094311;28;20184;-58
2024/01/03 03:10:11;;;;;;;14.80;9.60;;;;;;;4.08;100.00;39345.81;5094191;28;20638;-58
2024/01/03 03:12:38;;;;;;;11.17;9.67;;;;;;;4.23;100.00;39155.94;5094172;28;20188;-59
2024/01/03 03:15:08;;;;;;;5.33;5.03;;;;;;;4.27;100.00;38353.72;5094173;28;20188;-58
2024/01/03 03:17:35;;;;;;;10.50;8.40;;;;;;;4.40;100.00;40021.03;5094431;28;20204;-59
2024/01/03 03:20:02;;;;;;;14.00;9.17;;;;;;;4.30;100.00;39493.38;5094155;28;20184;-59
2024/01/03 03:22:29;;;;;;;12.93;7.80;;;;;;;4.52;100.00;38911.34;5094025;28;20188;-58
2024/01/03 03:24:56;;;;;;;8.83;7.50;;;;;;;4.61;100.00;37331.63;5094198;28;20567;-60
2024/01/03 03:27:24;;;;;;;9.17;7.07;;;;;;;4.56;100.00;36120.97;5093988;28;20176;-58
2024/01/03 03:29:51;;;;;;;8.37;7.87;;;;;;;4.52;100.00;34886.59;5093977;28;20274;-60
2024/01/03 03:32:20;;;;;;;7.87;7.47;;;;;;;4.37;100.00;32859.84;5094119;28;20180;-58
2024/01/03 03:34:47;;;;;;;8.80;8.00;;;;;;;4.25;100.00;31752.38;5093890;28;20219;-57
2024/01/03 03:37:14;;;;;;;8.90;8.10;;;;;;;4.33;100.00;27767.34;5093681;28;20204;-59
2024/01/03 03:39:41;;;;;;;9.27;8.53;;;;;;;4.37;100.00;26127.63;5093796;28;20197;-57
2024/01/03 03:42:08;;;;;;;12.70;9.00;;;;;;;4.38;100.00;25465.56;5093940;28;20180;-59
2024/01/03 03:44:35;;;;;;;9.33;8.60;;;;;;;4.31;100.00;24630.66;5093479;28;20241;-58
2024/01/03 03:47:02;;;;;;;10.47;9.43;;;;;;;4.34;100.00;23551.63;5093871;28;20604;-59
2024/01/03 03:49:31;;;;;;;9.20;8.50;;;;;;;4.15;100.00;23861.84;5093378;28;20230;-59
2024/01/03 03:51:58;;;;;;;8.93;8.13;;;;;;;4.13;100.00;22587.16;5093652;28;20558;-58
2024/01/03 03:54:25;;;;;;;8.90;7.43;;;;;;;4.12;100.00;23067.03;5093404;28;20254;-59
2024/01/03 03:56:52;;;;;;;10.00;7.67;;;;;;;4.05;100.00;24215.91;5093317;28;20204;-58
2024/01/03 03:59:19;;;;;;;7.97;7.03;;;;;;;3.90;100.00;25856.19;5093632;28;20277;-59
2024/01/03 04:01:49;;;;;;;8.33;7.17;;;;;;;3.92;100.00;25409.41;5093277;28;20192;-59
2024/01/03 04:04:20;;;;;;;9.80;7.33;;;;;;;4.25;100.00;25865.13;5093221;28;20180;-58
2024/01/03 04:06:49;;;;;;;6.83;6.13;;;;;;;4.43;100.00;26559.03;5092939;28;20631;-58
2024/01/03 04:09:16;;;;;;;7.87;7.13;;;;;;;4.33;100.00;27558.00;5093504;28;20223;-59
2024/01/03 04:11:43;;;;;;;6.57;6.07;;;;;;;4.48;100.00;28338.34;5093769;28;20250;-58
2024/01/03 04:14:11;;;;;;;8.70;7.83;;;;;;;4.42;100.00;28066.28;5093703;28;20184;-59
2024/01/03 04:16:39;;;;;;;7.00;6.40;;;;;;;4.50;100.00;26342.94;5093371;28;20293;-59
2024/01/03 04:19:06;;;;;;;8.93;7.20;;;;;;;4.50;100.00;25648.06;5092967;28;20206;-59
2024/01/03 04:21:33;;;;;;;13.73;11.10;;;;;;;4.54;100.00;24765.44;5092873;28;20180;-59
2024/01/03 04:24:02;;;;;;;12.33;11.30;;;;;;;4.50;100.00;25508.34;5093205;28;20600;-60
2024/01/03 04:26:29;;;;;;;15.10;13.67;;;;;;;4.16;100.00;26271.97;5093193;28;20180;-59
2024/01/03 04:28:56;;;;;;;14.17;12.70;;;;;;;4.32;100.00;25462.53;5093116;28;20656;-57
2024/01/03 04:31:23;;;;;;;11.00;9.97;;;;;;;4.24;100.00;25259.81;5092665;28;20188;-60
2024/01/03 04:33:50;;;;;;;10.93;10.03;;;;;;;4.19;100.00;25401.66;5092874;28;20212;-58
2024/01/03 04:36:17;;;;;;;12.50;9.77;;;;;;;4.16;100.00;25923.09;5092558;28;20218;-58
2024/01/03 04:38:45;;;;;;;17.70;10.87;;;;;;;4.27;100.00;25480.09;5092943;28;20208;-59
2024/01/03 04:41:13;;;;;;;11.90;10.80;;;;;;;4.38;100.00;25834.19;5092550;28;20602;-59
2024/01/03 04:43:41;;;;;;;10.67;9.60;;;;;;;4.42;100.00;26120.06;5092493;28;20241;-59
2024/01/03 04:46:08;;;;;;;11.67;10.63;;;;;;;4.23;100.00;25966.53;5092252;28;20183;-58
2024/01/03 04:48:37;;;;;;;14.87;11.03;;;;;;;4.31;100.00;24914.25;5092262;28;20235;-58
2024/01/03 04:51:04;;;;;;;16.13;13.80;;;;;;;4.16;100.00;25890.75;5092791;28;20624;-59
2024/01/03 04:53:32;;;;;;;13.03;11.77;;;;;;;4.38;100.00;25111.69;5092660;28;20304;-58
2024/01/03 04:55:59;;;;;;;14.27;13.00;;;;;;;4.45;100.00;25239.72;5092213;28;20192;-58
2024/01/03 04:58:28;;;;;;;26.67;21.57;;;;;;;4.49;100.00;25963.75;5092596;28;20617;-58
2024/01/03 05:00:55;;;;;;;24.67;18.57;;;;;;;4.51;100.00;26044.44;5092218;28;20200;-59
2024/01/03 05:03:22;;;;;;;17.90;15.93;;;;;;;4.57;100.00;25793.16;5092127;28;20180;-59
2024/01/03 05:05:49;;;;;;;23.23;14.83;;;;;;;4.67;100.00;25758.03;5092362;28;20253;-60
2024/01/03 05:08:16;;;;;;;15.60;12.40;;;;;;;4.56;100.00;25698.25;5091872;28;20184;-59
2024/01/03 05:10:43;;;;;;;14.50;13.00;;;;;;;4.58;100.00;25228.31;5092622;28;20640;-59
2024/01/03 05:13:10;;;;;;;16.37;11.43;;;;;;;4.62;100.00;25601.19;5091997;28;20245;-59
2024/01/03 05:15:39;;;;;;;14.40;12.50;;;;;;;4.73;100.00;25611.34;5092133;28;20239;-58
2024/01/03 05:18:06;;;;;;;20.33;15.73;;;;;;;4.84;100.00;24829.00;5092068;28;20234;-60
2024/01/03 05:20:33;;;;;;;20.67;16.80;;;;;;;4.97;100.00;23912.88;5092128;28;20671;-59
2024/01/03 05:23:00;;;;;;;24.50;16.33;;;;;;;4.97;100.00;23155.47;5092118;28;20184;-59
2024/01/03 05:25:27;;;;;;;23.80;15.70;;;;;;;5.21;100.00;23055.72;5091869;28;20201;-59
2024/01/03 05:27:54;;;;;;;16.90;15.10;;;;;;;5.38;100.00;22380.28;5092096;28;20346;-59
2024/01/03 05:30:21;;;;;;;21.53;17.50;;;;;;;5.47;100.00;22176.94;5092036;28;20703;-60
2024/01/03 05:32:49;;;;;;;35.43;21.97;;;;;;;5.45;100.00;21924.59;5091623;28;20180;-59
2024/01/03 05:35:16;;;;;;;35.63;24.33;;;;;;;5.53;100.00;21748.44;5092307;28;20687;-60
2024/01/03 05:37:43;;;;;;;24.37;20.17;;;;;;;5.39;100.00;21946.84;5091833;28;20257;-58
2024/01/03 05:40:11;;;;;;;29.67;19.13;;;;;;;5.42;100.00;22603.78;5091586;28;20191;-58
2024/01/03 05:42:38;;;;;;;18.23;15.67;;;;;;;5.37;100.00;22409.56;5091844;28;20184;-60
2024/01/03 05:45:06;;;;;;;25.67;17.77;;;;;;;5.24;100.00;21357.75;5091485;28;20194;-58
2024/01/03 05:47:33;;;;;;;21.27;16.60;;;;;;;5.10;100.00;20425.88;5091703;28;20180;-58
2024/01/03 05:50:01;;;;;;;25.80;18.03;;;;;;;5.08;100.00;19758.16;5091900;28;20188;-58
2024/01/03 05:52:29;;;;;;;25.57;17.93;;;;;;;5.06;100.00;18801.94;5091806;28;20638;-59
2024/01/03 05:54:56;;;;;;;23.57;17.47;;;;;;;5.21;100.00;18488.59;5091365;28;20318;-59
2024/01/03 05:57:23;;;;;;;23.10;18.10;;;;;;;5.29;100.00;18810.03;5091361;28;20204;-60
2024/01/03 05:59:50;;;;;;;31.43;18.93;;;;;;;5.51;100.00;19487.84;5091624;28;20184;-59
2024/01/03 06:02:17;;;;;;;35.70;20.40;;;;;;;5.56;100.00;20221.88;5091531;28;20229;-58
2024/01/03 06:04:46;;;;;;;32.73;21.10;;;;;;;5.53;100.00;20572.03;5091800;28;20184;-57
2024/01/03 06:07:14;;;;;;;30.53;21.30;;;;;;;5.66;100.00;19879.38;5091515;28;20275;-58
2024/01/03 06:09:41;;;;;;;27.67;21.80;;;;;;;5.56;100.00;19775.97;5091479;28;20184;-59
2024/01/03 06:12:09;;;;;;;31.93;20.87;;;;;;;5.67;100.00;18823.31;5091648;28;20627;-58
2024/01/03 06:14:36;;;;;;;37.47;23.00;;;;;;;5.43;100.00;18496.38;5091244;28;20192;-60
2024/01/03 06:17:03;;;;;;;34.90;22.63;;;;;;;5.44;100.00;17222.13;5091238;28;20262;-58
2024/01/03 06:19:30;;;;;;;33.27;22.43;;;;;;;5.45;100.00;15948.66;5091252;28;20188;-59
2024/01/03 06:21:57;;;;;;;37.20;24.13;;;;;;;5.38;100.00;16264.91;5091405;28;20687;-58
2024/01/03 06:24:25;;;;;;;36.27;24.93;;;;;;;5.58;100.00;15952.56;5091759;28;20184;-58
2024/01/03 06:26:52;;;;;;;37.40;24.33;;;;;;;5.69;100.00;16593.16;5091657;28;20180;-60
2024/01/03 06:29:19;;;;;;;40.33;25.87;;;;;;;5.83;100.00;17235.13;5093181;28;20562;-58
2024/01/03 06:31:46;;;;;;;45.23;29.57;;;;;;;5.86;100.00;18192.56;5096067;28;20602;-58
2024/01/03 06:34:13;;;;;;;45.27;27.27;;;;;;;5.88;100.00;18193.09;5095621;28;20192;-55
2024/01/03 06:36:40;;;;;;;43.30;25.53;;;;;;;5.91;100.00;17875.44;5095660;28;20244;-56
2024/01/03 06:39:07;;;;;;;40.73;26.47;;;;;;;5.78;100.00;18189.59;5095050;28;20206;-56
2024/01/03 06:41:36;;;;;;;38.63;25.80;;;;;;;5.91;100.00;16919.03;5094861;28;20190;-56
2024/01/03 06:44:03;;;;;;;47.73;28.90;;;;;;;6.00;100.00;15965.38;5095079;28;20265;-57
2024/01/03 06:46:31;;;;;;;51.17;30.70;;;;;;;6.07;100.00;15330.28;5094946;28;20604;-57
2024/01/03 06:48:58;;;;;;;57.57;27.97;;;;;;;6.12;100.00;14694.44;5095225;28;20252;-57
2024/01/03 06:51:25;;;;;;;54.87;31.03;;;;;;;6.19;100.00;12784.75;5094995;28;20633;-58
2024/01/03 06:53:52;;;;;;;53.97;32.83;;;;;;;6.35;100.00;12151.81;5094412;28;20232;-56
2024/01/03 06:56:23;;;;;;;58.93;31.83;;;;;;;6.46;100.00;12154.56;5094731;28;20194;-58
2024/01/03 06:58:52;;;;;;;43.00;29.23;;;;;;;6.57;100.00;11520.09;5094833;28;20632;-59
2024/01/03 07:01:19;;;;;;;49.50;29.37;;;;;;;6.61;100.00;11520.94;5094825;28;20180;-57
2024/01/03 07:03:46;;;;;;;34.27;25.10;;;;;;;6.73;100.00;10568.06;5094946;28;20184;-59
2024/01/03 07:06:14;;;;;;;33.97;22.57;;;;;;;6.74;100.00;9612.72;5094452;28;20192;-59
2024/01/03 07:08:41;;;;;;;38.27;23.23;;;;;;;6.63;100.00;8973.63;5094623;28;20180;-58
2024/01/03 07:11:10;;;;;;;37.47;24.97;;;;;;;6.64;100.00;8337.16;5094803;28;20229;-59
2024/01/03 07:13:37;;;;;;;50.33;26.43;;;;;;;6.73;100.00;7702.19;5094749;28;20731;-58
2024/01/03 07:16:06;;;;;;;54.40;32.80;;;;;;;6.76;100.00;8021.03;5094231;28;20214;-58
2024/01/03 07:18:33;;;;;;;55.83;31.00;;;;;;;6.99;100.00;7706.59;5094321;28;20203;-59
2024/01/03 07:21:00;;;;;;;40.03;25.43;;;;;;;7.03;100.00;8025.88;5094734;28;20184;-60
2024/01/03 07:23:27;;;;;;;43.17;28.27;;;;;;;7.04;100.00;9300.13;5094946;28;20639;-58
2024/01/03 07:25:54;;;;;;;55.00;28.20;;;;;;;7.16;100.00;10258.69;5093730;28;20249;-59
2024/01/03 07:28:21;;;;;;;54.93;31.93;;;;;;;7.26;100.00;10898.56;5094331;28;20183;-58
2024/01/03 07:30:48;;;;;;;63.83;33.63;;;;;;;7.33;100.00;12814.31;5094531;28;20184;-59
2024/01/03 07:33:17;;;;;;;65.37;36.37;;;;;;;7.38;100.00;14411.34;5093983;28;20184;-58
2024/01/03 07:35:44;;;;;;;63.33;33.03;;;;;;;7.89;100.00;14745.41;5093626;28;20680;-60
2024/01/03 07:38:11;;;;;;;48.27;27.87;;;;;;;8.54;100.00;16364.38;5093759;28;20200;-59
2024/01/03 07:40:38;;;;;;;32.77;20.40;;;;;;;8.92;100.00;33071.47;5093004;28;20616;-58
2024/01/03 07:43:07;;;;;;;42.80;22.60;;;;;;;8.81;100.00;59233.63;5093727;28;20546;-59
2024/01/03 07:45:34;;;;;;;37.73;22.73;;;;;;;8.81;100.00;56315.50;5093356;28;20245;-59
2024/01/03 07:48:02;;;;;;;29.53;22.33;;;;;;;8.74;100.00;55336.78;5093930;28;20187;-57
2024/01/03 07:50:31;;;;;;;38.00;23.13;;;;;;;8.63;100.00;53708.28;5095295;28;20233;-63
2024/01/03 07:52:59;;;;;;;51.77;25.07;;;;;;;8.77;100.00;53720.91;5096757;28;20331;-64
2024/01/03 07:55:26;;;;;;;44.50;23.10;;;;;;;8.63;100.00;53060.94;5097656;28;20226;-65
2024/01/03 07:57:53;;;;;;;45.70;23.50;;;;;;;8.53;100.00;41745.16;5095142;28;20689;-65
2024/01/03 08:00:20;;;;;;;36.53;24.13;;;;;;;8.64;100.00;33055.44;5094588;28;20218;-64
2024/01/03 08:02:47;;;;;;;36.10;23.53;;;;;;;8.69;100.00;30163.63;5094306;28;20249;-63
2024/01/03 08:05:14;;;;;;;41.07;23.77;;;;;;;8.69;100.00;28877.97;5093881;28;20192;-64
2024/01/03 08:07:44;;;;;;;31.60;22.67;;;;;;;8.78;100.00;26633.47;5095613;28;20532;-64
2024/01/03 08:10:11;;;;;;;41.70;23.23;;;;;;;8.79;100.00;26312.78;5095093;28;20217;-63
2024/01/03 08:12:38;;;;;;;42.67;24.33;;;;;;;8.65;100.00;19250.03;5095262;28;20200;-65
2024/01/03 08:15:08;;;;;;;37.00;23.93;;;;;;;8.73;100.00;16370.28;5095162;28;20276;-64
2024/01/03 08:17:35;;;;;;;57.30;27.07;;;;;;;8.64;100.00;16367.56;5094359;28;20219;-63
2024/01/03 08:20:03;;;;;;;55.33;26.23;;;;;;;8.76;100.00;18933.44;5097460;28;20191;-65
2024/01/03 08:22:30;;;;;;;53.40;25.13;;;;;;;8.90;100.00;22145.00;5095043;28;20206;-64
2024/01/03 08:24:59;;;;;;;51.67;27.57;;;;;;;8.96;100.00;21826.88;5093732;28;20187;-64
2024/01/03 08:27:26;;;;;;;59.30;29.57;;;;;;;9.05;100.00;20547.38;5094413;28;20354;-63
2024/01/03 08:29:53;;;;;;;53.77;29.30;;;;;;;9.07;100.00;21510.53;5093932;28;20195;-63
2024/01/03 08:32:20;;;;;;;60.97;29.70;;;;;;;9.31;100.00;22804.09;5094952;28;20233;-66
2024/01/03 08:34:47;;;;;;;48.43;28.57;;;;;;;9.29;100.00;22160.97;5095636;28;20196;-65
2024/01/03 08:37:14;;;;;;;45.80;28.73;;;;;;;9.28;100.00;22481.78;5095494;28;20188;-65
2024/01/03 08:39:42;;;;;;;50.93;29.30;;;;;;;9.36;100.00;22485.13;5094331;28;20204;-65
2024/01/03 08:42:12;;;;;;;58.73;28.43;;;;;;;9.44;100.00;21525.06;5095854;28;20207;-63
2024/01/03 08:44:40;;;;;;;37.37;26.60;;;;;;;9.53;100.00;21850.00;5094453;28;20608;-65
2024/01/03 08:47:07;;;;;;;42.63;27.27;;;;;;;9.58;100.00;20888.78;5093776;28;20638;-64
2024/01/03 08:49:34;;;;;;;41.40;26.50;;;;;;;9.88;100.00;21542.66;5093063;28;20222;-66
2024/01/03 08:52:02;;;;;;;48.57;27.30;;;;;;;10.02;100.00;24441.53;5092944;28;20230;-66
2024/01/03 08:54:29;;;;;;;37.87;25.13;;;;;;;10.10;100.00;29917.69;5093147;28;20231;-66
2024/01/03 08:56:56;;;;;;;46.87;23.93;;;;;;;10.18;100.00;40572.28;5095200;28;20184;-65
2024/01/03 08:59:23;;;;;;;34.00;23.00;;;;;;;10.25;100.00;48345.06;5089654;28;20606;-66
2024/01/03 09:01:56;;;;;;;29.57;21.77;;;;;;;10.34;100.00;50622.00;5095031;28;20189;-64
2024/01/03 09:04:23;;;;;;;25.93;21.33;;;;;;;10.58;100.00;55837.03;5093196;28;20220;-63
2024/01/03 09:06:55;;;;;;;30.60;21.50;;;;;;;10.69;100.00;62679.13;5095031;28;20222;-66
2024/01/03 09:09:22;;;;;;;25.23;19.80;;;;;;;10.73;100.00;74753.97;5094071;28;20271;-66
2024/01/03 09:11:50;;;;;;;25.90;19.63;;;;;;;10.59;100.00;79641.13;5094530;28;20634;-65
2024/01/03 09:14:18;;;;;;;30.37;19.53;;;;;;;10.66;100.00;86857.47;5092714;28;20180;-66
2024/01/03 09:16:48;;;;;;;29.67;19.57;;;;;;;10.61;100.00;90786.28;5093125;28;20623;-64
2024/01/03 09:19:15;;;;;;;34.30;19.60;;;;;;;10.69;100.00;89157.50;5092989;28;20278;-64
2024/01/03 09:21:46;;;;;;;27.80;19.50;;;;;;;10.87;100.00;92140.47;5093684;28;20563;-65
2024/01/03 09:24:22;;;;;;;33.20;20.67;;;;;;;10.87;100.00;97730.06;5093922;28;20275;-65
2024/01/03 09:26:50;;;;;;;30.93;18.43;;;;;;;10.80;100.00;105624.00;5093245;28;20257;-65
2024/01/03 09:29:18;;;;;;;32.43;18.40;;;;;;;10.72;100.00;106269.13;5093147;28;20295;-64
2024/01/03 09:31:47;;;;;;;27.03;18.10;;;;;;;10.90;100.00;115550.91;5094225;28;20180;-64
2024/01/03 09:34:14;;;;;;;24.73;18.27;;;;;;;10.94;100.00;123175.09;5093968;28;20191;-64
2024/01/03 09:36:41;;;;;;;24.50;17.40;;;;;;;10.98;100.00;119869.78;5094206;28;20204;-64
2024/01/03 09:39:09;;;;;;;34.90;17.53;;;;;;;11.04;100.00;115247.59;5093213;28;20257;-65
2024/01/03 09:41:36;;;;;;;23.23;17.53;;;;;;;11.08;100.00;116909.97;5094016;28;20563;-65
2024/01/03 09:44:04;;;;;;;20.40;17.10;;;;;;;11.19;100.00;120243.94;5093475;28;20661;-64
2024/01/03 09:46:31;;;;;;;24.83;16.87;;;;;;;11.19;100.00;121901.16;5093542;28;20257;-65
2024/01/03 09:49:00;;;;;;;17.73;15.83;;;;;;;11.30;100.00;123250.50;5094219;28;20634;-65
2024/01/03 09:51:27;;;;;;;18.50;16.57;;;;;;;11.26;100.00;122247.22;5092496;28;20192;-63
2024/01/03 09:53:55;;;;;;;27.20;16.47;;;;;;;11.24;100.00;129213.09;5093925;28;20266;-65
2024/01/03 09:56:32;;;;;;;18.83;16.70;;;;;;;11.32;100.00;126905.47;5093243;28;20192;-63
2024/01/03 09:58:59;;;;;;;20.00;17.90;;;;;;;11.21;100.00;130867.94;5091994;28;20238;-63
2024/01/03 10:01:26;;;;;;;38.60;18.77;;;;;;;11.34;100.00;133889.00;5092867;28;20657;-63
2024/01/03 10:03:53;;;;;;;23.33;17.93;;;;;;;11.27;100.00;131213.72;5092325;28;20184;-66
2024/01/03 10:06:21;;;;;;;23.63;18.23;;;;;;;11.35;100.00;133559.69;5098057;28;20195;-64
2024/01/03 10:08:59;;;;;;;48.03;19.13;;;;;;;11.42;100.00;127923.53;5097332;28;20195;-64
2024/01/03 10:11:26;;;;;;;22.67;15.67;;;;;;;11.68;100.00;131969.44;5096455;28;20179;-64
2024/01/03 10:13:54;;;;;;;17.87;15.63;;;;;;;11.88;100.00;149027.19;5096532;28;20234;-64
2024/01/03 10:16:26;;;;;;;16.50;14.80;;;;;;;11.93;100.00;149038.56;5096312;28;20214;-65
2024/01/03 10:19:12;;;;;;;25.67;16.53;;;;;;;11.83;100.00;149014.56;5096359;28;20230;-66
2024/01/03 10:21:50;;;;;;;47.73;17.63;;;;;;;12.08;100.00;149076.56;5095561;28;20194;-64
2024/01/03 10:24:17;;;;;;;31.80;17.87;;;;;;;12.07;100.00;149074.03;5095577;28;20186;-63
2024/01/03 10:26:45;;;;;;;47.30;20.13;;;;;;;11.98;100.00;149051.25;5099221;28;20200;-65
2024/01/03 10:29:14;;;;;;;57.33;22.80;;;;;;;11.98;100.00;149051.25;5101658;28;20192;-64
2024/01/03 10:31:42;;;;;;;55.10;21.10;;;;;;;12.05;100.00;149068.94;5095747;28;20568;-64
2024/01/03 10:34:15;;;;;;;63.17;24.17;;;;;;;11.80;100.00;149005.66;5095793;28;20195;-64
2024/01/03 10:36:44;;;;;;;39.37;23.73;;;;;;;11.81;100.00;148484.41;5095929;28;20599;-64
2024/01/03 10:39:15;;;;;;;57.33;27.53;;;;;;;11.83;100.00;136664.41;5095758;28;20204;-63
2024/01/03 10:41:43;;;;;;;75.67;32.43;;;;;;;11.70;100.00;124993.34;5096108;28;20188;-63
2024/01/03 10:44:11;;;;;;;61.23;33.07;;;;;;;11.77;100.00;120360.59;5097186;28;20199;-64
2024/01/03 10:46:39;;;;;;;66.07;32.77;;;;;;;11.78;100.00;119036.16;5096489;28;20631;-64
2024/01/03 10:49:07;;;;;;;56.30;32.30;;;;;;;11.85;100.00;123364.81;5095157;28;20211;-63
2024/01/03 10:51:40;;;;;;;63.33;33.80;;;;;;;11.96;100.00;122722.75;5104310;28;20199;-66
2024/01/03 10:54:12;;;;;;;60.10;35.43;;;;;;;11.91;100.00;135016.91;5100908;28;20732;-64
2024/01/03 10:56:39;;;;;;;70.83;39.07;;;;;;;12.01;100.00;131709.47;5096382;28;20187;-66
2024/01/03 10:59:07;;;;;;;65.27;39.67;;;;;;;12.02;100.00;130047.69;5097164;28;20265;-65
2024/01/03 11:01:44;;;;;;;75.27;36.03;;;;;;;11.92;100.00;136685.31;5097373;28;20184;-65
2024/01/03 11:04:22;;;;;;;63.63;34.30;;;;;;;11.90;100.00;129355.94;5097790;28;20220;-66
2024/01/03 11:06:56;;;;;;;49.77;31.73;;;;;;;11.73;100.00;125996.19;5097145;28;20630;-66
2024/01/03 11:09:26;;;;;;;33.03;26.87;;;;;;;12.08;100.00;126734.91;5096322;28;20241;-65
2024/01/03 11:12:07;;;;;;;51.67;29.83;;;;;;;12.16;100.00;138408.56;5097004;28;20212;-63
2024/01/03 11:14:34;;;;;;;37.90;26.10;;;;;;;12.19;100.00;147460.50;5096437;28;20195;-61
2024/01/03 11:17:02;;;;;;;43.37;27.03;;;;;;;12.21;100.00;149109.47;5097212;28;20222;-65
2024/01/03 11:19:30;;;;;;;50.63;29.27;;;;;;;12.13;100.00;149089.22;5096326;28;20307;-64
2024/01/03 11:21:57;;;;;;;53.60;28.70;;;;;;;12.16;100.00;149095.53;5097317;28;20232;-63